Terminal Aerodrome Forecast
Issued by NWS

Home | Current Version | Previous Version | Graphics & Text | Print | Product List | Glossary On
Versions: 1 2 3 4 5 6 7 8 9 10 11 12 13 14 15 16 17 18 19 20 21 22 23 24 25
000
FTUS43 KABR 250400 AAB
TAFMBG
TAF AMD
KMBG 250428Z 2504/2524 VRB06KT P6SM BKN070 OVC110
     FM250800 VRB06KT P6SM OVC035
     FM251400 14006KT P6SM OVC020
      TEMPO 2521/2524 2SM -SN BR=

USA.gov is the U.S. government's official web portal to all federal, state and local government web resources and services.